sensor_id;sensor_type;location;lat;lon;timestamp;pressure;altitude;pressure_sealevel;temperature;humidity
47220;BME280;32961;51.936;4.788;2023-02-03T00:00:40;102459.13;;;7.89;100.00
47220;BME280;32961;51.936;4.788;2023-02-03T00:03:08;102458.16;;;7.90;100.00
47220;BME280;32961;51.936;4.788;2023-02-03T00:05:36;102472.47;;;7.92;100.00
47220;BME280;32961;51.936;4.788;2023-02-03T00:08:06;102475.19;;;7.92;100.00
47220;BME280;32961;51.936;4.788;2023-02-03T00:10:34;102480.59;;;7.92;100.00
47220;BME280;32961;51.936;4.788;2023-02-03T00:13:03;102485.91;;;7.93;100.00
47220;BME280;32961;51.936;4.788;2023-02-03T00:15:32;102482.44;;;7.91;100.00
47220;BME280;32961;51.936;4.788;2023-02-03T00:18:00;102483.31;;;7.92;100.00
47220;BME280;32961;51.936;4.788;2023-02-03T00:20:28;102490.47;;;7.93;100.00
47220;BME280;32961;51.936;4.788;2023-02-03T00:23:02;102496.69;;;7.95;100.00
47220;BME280;32961;51.936;4.788;2023-02-03T00:25:31;102485.91;;;7.93;100.00
47220;BME280;32961;51.936;4.788;2023-02-03T00:27:58;102491.34;;;7.93;100.00
47220;BME280;32961;51.936;4.788;2023-02-03T00:30:27;102492.03;;;7.97;100.00
47220;BME280;32961;51.936;4.788;2023-02-03T00:32:56;102487.66;;;7.94;100.00
47220;BME280;32961;51.936;4.788;2023-02-03T00:35:23;102488.56;;;7.95;100.00
47220;BME280;32961;51.936;4.788;2023-02-03T00:37:52;102493.97;;;7.95;100.00
47220;BME280;32961;51.936;4.788;2023-02-03T00:40:22;102498.44;;;7.96;100.00
47220;BME280;32961;51.936;4.788;2023-02-03T00:42:51;102496.69;;;7.95;100.00
47220;BME280;32961;51.936;4.788;2023-02-03T00:45:20;102495.78;;;7.94;100.00
47220;BME280;32961;51.936;4.788;2023-02-03T00:47:48;102495.88;;;7.93;100.00
47220;BME280;32961;51.936;4.788;2023-02-03T00:50:17;102498.59;;;7.93;100.00
47220;BME280;32961;51.936;4.788;2023-02-03T00:52:45;102494.94;;;7.94;100.00
47220;BME280;32961;51.936;4.788;2023-02-03T00:55:13;102494.94;;;7.94;100.00
47220;BME280;32961;51.936;4.788;2023-02-03T00:57:41;102498.50;;;7.94;100.00
47220;BME280;32961;51.936;4.788;2023-02-03T01:00:10;102485.84;;;7.95;100.00
47220;BME280;32961;51.936;4.788;2023-02-03T01:02:37;102488.72;;;7.92;100.00
47220;BME280;32961;51.936;4.788;2023-02-03T01:05:06;102491.34;;;7.93;100.00
47220;BME280;32961;51.936;4.788;2023-02-03T01:07:36;102482.25;;;7.94;100.00
47220;BME280;32961;51.936;4.788;2023-02-03T01:10:04;102487.50;;;7.97;100.00
47220;BME280;32961;51.936;4.788;2023-02-03T01:12:32;102481.22;;;7.97;100.00
47220;BME280;32961;51.936;4.788;2023-02-03T01:15:00;102471.44;;;7.94;100.00
47220;BME280;32961;51.936;4.788;2023-02-03T01:17:28;102470.38;;;7.97;100.00
47220;BME280;32961;51.936;4.788;2023-02-03T01:19:56;102475.03;;;7.95;100.00
47220;BME280;32961;51.936;4.788;2023-02-03T01:22:24;102476.84;;;7.94;100.00
47220;BME280;32961;51.936;4.788;2023-02-03T01:24:53;102472.31;;;7.95;100.00
47220;BME280;32961;51.936;4.788;2023-02-03T01:27:21;102479.56;;;7.94;100.00
47220;BME280;32961;51.936;4.788;2023-02-03T01:29:49;102473.19;;;7.95;100.00
47220;BME280;32961;51.936;4.788;2023-02-03T01:32:17;102481.22;;;7.97;100.00
47220;BME280;32961;51.936;4.788;2023-02-03T01:34:44;102489.25;;;7.98;100.00
47220;BME280;32961;51.936;4.788;2023-02-03T01:37:12;102474.94;;;7.96;100.00
47220;BME280;32961;51.936;4.788;2023-02-03T01:39:42;102451.28;;;8.00;100.00
47220;BME280;32961;51.936;4.788;2023-02-03T01:42:13;102444.56;;;7.91;100.00
47220;BME280;32961;51.936;4.788;2023-02-03T01:44:43;102437.03;;;7.96;100.00
47220;BME280;32961;51.936;4.788;2023-02-03T01:47:16;102445.06;;;7.98;100.00
47220;BME280;32961;51.936;4.788;2023-02-03T01:49:48;102430.56;;;7.99;100.00
47220;BME280;32961;51.936;4.788;2023-02-03T01:52:17;102433.28;;;7.99;100.00
47220;BME280;32961;51.936;4.788;2023-02-03T01:54:47;102442.25;;;7.99;100.00
47220;BME280;32961;51.936;4.788;2023-02-03T01:57:19;102444.00;;;8.00;100.00
47220;BME280;32961;51.936;4.788;2023-02-03T01:59:49;102437.53;;;8.03;99.20
47220;BME280;32961;51.936;4.788;2023-02-03T02:02:17;102437.38;;;8.06;98.60
47220;BME280;32961;51.936;4.788;2023-02-03T02:04:50;102440.88;;;8.08;98.23
47220;BME280;32961;51.936;4.788;2023-02-03T02:07:19;102446.00;;;8.13;97.63
47220;BME280;32961;51.936;4.788;2023-02-03T02:09:47;102432.09;;;8.19;97.65
47220;BME280;32961;51.936;4.788;2023-02-03T02:12:17;102448.09;;;8.24;97.51
47220;BME280;32961;51.936;4.788;2023-02-03T02:14:45;102432.91;;;8.21;97.25
47220;BME280;32961;51.936;4.788;2023-02-03T02:17:24;102458.94;;;8.24;97.11
47220;BME280;32961;51.936;4.788;2023-02-03T02:20:23;102427.38;;;8.23;97.42
47220;BME280;32961;51.936;4.788;2023-02-03T02:23:23;102429.81;;;8.27;97.34
47220;BME280;32961;51.936;4.788;2023-02-03T02:32:06;102439.81;;;8.27;98.10
47220;BME280;32961;51.936;4.788;2023-02-03T02:34:44;102430.88;;;8.25;98.03
47220;BME280;32961;51.936;4.788;2023-02-03T02:37:21;102432.72;;;8.24;98.44
47220;BME280;32961;51.936;4.788;2023-02-03T02:39:55;102428.28;;;8.23;98.45
47220;BME280;32961;51.936;4.788;2023-02-03T02:42:31;102426.44;;;8.24;98.70
47220;BME280;32961;51.936;4.788;2023-02-03T02:45:07;102426.44;;;8.24;98.52
47220;BME280;32961;51.936;4.788;2023-02-03T02:47:38;102432.63;;;8.26;98.58
47220;BME280;32961;51.936;4.788;2023-02-03T02:50:10;102437.47;;;8.21;98.25
47220;BME280;32961;51.936;4.788;2023-02-03T02:52:42;102438.22;;;8.23;98.53
47220;BME280;32961;51.936;4.788;2023-02-03T02:55:19;102437.19;;;8.25;98.53
47220;BME280;32961;51.936;4.788;2023-02-03T02:57:52;102437.94;;;8.27;98.43
47220;BME280;32961;51.936;4.788;2023-02-03T03:00:22;102426.44;;;8.24;98.05
47220;BME280;32961;51.936;4.788;2023-02-03T03:02:52;102429.13;;;8.24;98.49
47220;BME280;32961;51.936;4.788;2023-02-03T03:05:19;102437.84;;;8.29;98.16
47220;BME280;32961;51.936;4.788;2023-02-03T03:07:54;102424.41;;;8.27;98.31
47220;BME280;32961;51.936;4.788;2023-02-03T03:10:25;102391.91;;;8.27;98.17
47220;BME280;32961;51.936;4.788;2023-02-03T03:12:58;102384.59;;;8.29;97.89
47220;BME280;32961;51.936;4.788;2023-02-03T03:15:30;102386.41;;;8.29;97.14
47220;BME280;32961;51.936;4.788;2023-02-03T03:18:04;102384.38;;;8.32;97.09
47220;BME280;32961;51.936;4.788;2023-02-03T03:20:35;102374.59;;;8.30;97.13
47220;BME280;32961;51.936;4.788;2023-02-03T03:23:09;102396.28;;;8.30;96.86
47220;BME280;32961;51.936;4.788;2023-02-03T03:25:40;102384.47;;;8.31;96.94
47220;BME280;32961;51.936;4.788;2023-02-03T03:28:13;102406.94;;;8.33;96.86
47220;BME280;32961;51.936;4.788;2023-02-03T03:30:42;102417.78;;;8.33;97.05
47220;BME280;32961;51.936;4.788;2023-02-03T03:33:11;102418.63;;;8.33;96.97
47220;BME280;32961;51.936;4.788;2023-02-03T03:35:44;102419.53;;;8.34;97.10
47220;BME280;32961;51.936;4.788;2023-02-03T03:38:17;102416.72;;;8.35;97.07
47220;BME280;32961;51.936;4.788;2023-02-03T03:40:50;102421.28;;;8.35;97.12
47220;BME280;32961;51.936;4.788;2023-02-03T03:43:23;102426.84;;;8.32;97.52
47220;BME280;32961;51.936;4.788;2023-02-03T03:45:57;102434.97;;;8.32;97.55
47220;BME280;32961;51.936;4.788;2023-02-03T03:48:31;102427.81;;;8.31;97.56
47220;BME280;32961;51.936;4.788;2023-02-03T03:51:02;102420.66;;;8.30;97.64
47220;BME280;32961;51.936;4.788;2023-02-03T03:53:33;102413.47;;;8.29;97.52
47220;BME280;32961;51.936;4.788;2023-02-03T03:56:06;102432.44;;;8.29;97.82
47220;BME280;32961;51.936;4.788;2023-02-03T03:58:36;102424.94;;;8.34;97.88
47220;BME280;32961;51.936;4.788;2023-02-03T04:01:07;102416.81;;;8.34;97.36
47220;BME280;32961;51.936;4.788;2023-02-03T04:03:38;102421.28;;;8.35;97.42
47220;BME280;32961;51.936;4.788;2023-02-03T04:06:07;102428.41;;;8.36;97.15
47220;BME280;32961;51.936;4.788;2023-02-03T04:08:35;102427.53;;;8.35;96.86
47220;BME280;32961;51.936;4.788;2023-02-03T04:11:02;102434.97;;;8.32;96.94
47220;BME280;32961;51.936;4.788;2023-02-03T04:13:30;102434.72;;;8.37;96.96
47220;BME280;32961;51.936;4.788;2023-02-03T04:15:58;102422.03;;;8.37;96.60
47220;BME280;32961;51.936;4.788;2023-02-03T04:18:26;102431.91;;;8.38;96.09
47220;BME280;32961;51.936;4.788;2023-02-03T04:20:55;102438.88;;;8.42;96.47
47220;BME280;32961;51.936;4.788;2023-02-03T04:23:23;102448.00;;;8.41;96.51
47220;BME280;32961;51.936;4.788;2023-02-03T04:25:51;102439.06;;;8.39;96.62
47220;BME280;32961;51.936;4.788;2023-02-03T04:28:18;102446.25;;;8.40;96.75
47220;BME280;32961;51.936;4.788;2023-02-03T04:30:46;102442.56;;;8.41;96.97
47220;BME280;32961;51.936;4.788;2023-02-03T04:33:14;102430.84;;;8.41;96.88
47220;BME280;32961;51.936;4.788;2023-02-03T04:35:42;102428.84;;;8.44;97.02
47220;BME280;32961;51.936;4.788;2023-02-03T04:38:11;102431.75;;;8.41;96.67
47220;BME280;32961;51.936;4.788;2023-02-03T04:40:38;102437.31;;;8.38;96.61
47220;BME280;32961;51.936;4.788;2023-02-03T04:43:06;102432.75;;;8.39;96.73
47220;BME280;32961;51.936;4.788;2023-02-03T04:45:34;102435.56;;;8.37;96.83
47220;BME280;32961;51.936;4.788;2023-02-03T04:48:02;102424.63;;;8.39;96.78
47220;BME280;32961;51.936;4.788;2023-02-03T04:50:30;102424.63;;;8.39;96.81
47220;BME280;32961;51.936;4.788;2023-02-03T04:52:58;102434.63;;;8.38;96.81
47220;BME280;32961;51.936;4.788;2023-02-03T04:55:28;102430.16;;;8.37;96.97
47220;BME280;32961;51.936;4.788;2023-02-03T04:57:55;102418.56;;;8.35;96.91
47220;BME280;32961;51.936;4.788;2023-02-03T05:00:24;102442.25;;;8.31;96.85
47220;BME280;32961;51.936;4.788;2023-02-03T05:02:52;102434.03;;;8.33;96.86
47220;BME280;32961;51.936;4.788;2023-02-03T05:05:20;102429.56;;;8.32;96.83
47220;BME280;32961;51.936;4.788;2023-02-03T05:07:48;102440.03;;;8.38;96.78
47220;BME280;32961;51.936;4.788;2023-02-03T05:10:16;102446.25;;;8.40;96.49
47220;BME280;32961;51.936;4.788;2023-02-03T05:12:45;102453.41;;;8.41;96.54
47220;BME280;32961;51.936;4.788;2023-02-03T05:15:13;102445.34;;;8.40;96.55
47220;BME280;32961;51.936;4.788;2023-02-03T05:17:41;102436.28;;;8.41;96.71
47220;BME280;32961;51.936;4.788;2023-02-03T05:20:10;102424.75;;;8.37;96.84
47220;BME280;32961;51.936;4.788;2023-02-03T05:22:38;102434.44;;;8.41;96.63
47220;BME280;32961;51.936;4.788;2023-02-03T05:25:06;102430.00;;;8.40;96.56
47220;BME280;32961;51.936;4.788;2023-02-03T05:27:36;102432.75;;;8.39;96.58
47220;BME280;32961;51.936;4.788;2023-02-03T05:30:07;102443.00;;;8.33;96.42
47220;BME280;32961;51.936;4.788;2023-02-03T05:32:35;102443.22;;;8.30;96.54
47220;BME280;32961;51.936;4.788;2023-02-03T05:35:04;102439.34;;;8.34;96.54
47220;BME280;32961;51.936;4.788;2023-02-03T05:37:31;102447.81;;;8.28;96.68
47220;BME280;32961;51.936;4.788;2023-02-03T05:39:59;102445.03;;;8.30;96.69
47220;BME280;32961;51.936;4.788;2023-02-03T05:42:45;102439.53;;;8.31;96.54
47220;BME280;32961;51.936;4.788;2023-02-03T05:45:15;102440.81;;;8.40;96.45
47220;BME280;32961;51.936;4.788;2023-02-03T05:47:43;102431.06;;;8.38;96.31
47220;BME280;32961;51.936;4.788;2023-02-03T05:50:11;102434.28;;;8.28;96.47
47220;BME280;32961;51.936;4.788;2023-02-03T05:52:39;102434.97;;;8.32;96.42
47220;BME280;32961;51.936;4.788;2023-02-03T05:55:07;102439.34;;;8.34;96.72
47220;BME280;32961;51.936;4.788;2023-02-03T05:57:34;102442.31;;;8.30;96.66
47220;BME280;32961;51.936;4.788;2023-02-03T06:00:03;102438.75;;;8.29;96.79
47220;BME280;32961;51.936;4.788;2023-02-03T06:02:33;102426.16;;;8.28;96.67
47220;BME280;32961;51.936;4.788;2023-02-03T06:05:00;102431.69;;;8.27;97.01
47220;BME280;32961;51.936;4.788;2023-02-03T06:07:28;102438.31;;;8.21;97.35
47220;BME280;32961;51.936;4.788;2023-02-03T06:09:56;102454.75;;;8.18;97.86
47220;BME280;32961;51.936;4.788;2023-02-03T06:12:24;102434.75;;;8.21;97.83
47220;BME280;32961;51.936;4.788;2023-02-03T06:14:54;102445.97;;;8.29;97.69
47220;BME280;32961;51.936;4.788;2023-02-03T06:17:22;102436.13;;;8.28;97.67
47220;BME280;32961;51.936;4.788;2023-02-03T06:19:51;102427.31;;;8.24;97.46
47220;BME280;32961;51.936;4.788;2023-02-03T06:22:19;102442.09;;;8.18;98.26
47220;BME280;32961;51.936;4.788;2023-02-03T06:24:46;102437.09;;;8.27;97.79
47220;BME280;32961;51.936;4.788;2023-02-03T06:27:15;102434.03;;;8.33;97.41
47220;BME280;32961;51.936;4.788;2023-02-03T06:29:42;102432.28;;;8.32;97.78
47220;BME280;32961;51.936;4.788;2023-02-03T06:32:10;102429.66;;;8.30;97.15
47220;BME280;32961;51.936;4.788;2023-02-03T06:34:38;102424.63;;;8.24;98.09
47220;BME280;32961;51.936;4.788;2023-02-03T06:37:07;102423.66;;;8.25;98.24
47220;BME280;32961;51.936;4.788;2023-02-03T06:39:35;102427.31;;;8.24;97.69
47220;BME280;32961;51.936;4.788;2023-02-03T06:42:03;102441.03;;;8.21;98.01
47220;BME280;32961;51.936;4.788;2023-02-03T06:44:31;102446.28;;;8.24;98.39
47220;BME280;32961;51.936;4.788;2023-02-03T06:46:58;102453.25;;;8.28;98.03
47220;BME280;32961;51.936;4.788;2023-02-03T06:49:28;102455.09;;;8.28;97.87
47220;BME280;32961;51.936;4.788;2023-02-03T06:51:56;102461.63;;;8.24;98.17
47220;BME280;32961;51.936;4.788;2023-02-03T06:54:25;102461.81;;;8.21;98.45
47220;BME280;32961;51.936;4.788;2023-02-03T06:56:53;102457.28;;;8.21;98.84
47220;BME280;32961;51.936;4.788;2023-02-03T06:59:21;102478.06;;;8.21;98.65
47220;BME280;32961;51.936;4.788;2023-02-03T07:01:49;102487.75;;;8.25;98.39
47220;BME280;32961;51.936;4.788;2023-02-03T07:04:17;102494.81;;;8.27;98.38
47220;BME280;32961;51.936;4.788;2023-02-03T07:06:44;102499.63;;;8.22;98.95
47220;BME280;32961;51.936;4.788;2023-02-03T07:09:12;102490.03;;;8.16;99.44
47220;BME280;32961;51.936;4.788;2023-02-03T07:11:41;102491.69;;;8.19;99.65
47220;BME280;32961;51.936;4.788;2023-02-03T07:14:09;102502.34;;;8.22;99.56
47220;BME280;32961;51.936;4.788;2023-02-03T07:16:37;102484.88;;;8.28;99.31
47220;BME280;32961;51.936;4.788;2023-02-03T07:19:05;102498.69;;;8.23;99.35
47220;BME280;32961;51.936;4.788;2023-02-03T07:21:33;102496.84;;;8.24;99.73
47220;BME280;32961;51.936;4.788;2023-02-03T07:24:00;102495.53;;;8.31;99.41
47220;BME280;32961;51.936;4.788;2023-02-03T07:26:28;102486.34;;;8.33;99.42
47220;BME280;32961;51.936;4.788;2023-02-03T07:28:58;102503.56;;;8.32;99.24
47220;BME280;32961;51.936;4.788;2023-02-03T07:31:26;102510.38;;;8.24;99.95
47220;BME280;32961;51.936;4.788;2023-02-03T07:33:54;102497.38;;;8.30;99.56
47220;BME280;32961;51.936;4.788;2023-02-03T07:36:22;102507.94;;;8.35;99.35
47220;BME280;32961;51.936;4.788;2023-02-03T07:38:50;102508.81;;;8.35;99.46
47220;BME280;32961;51.936;4.788;2023-02-03T07:41:18;102505.84;;;8.40;99.33
47220;BME280;32961;51.936;4.788;2023-02-03T07:43:46;102499.25;;;8.44;99.12
47220;BME280;32961;51.936;4.788;2023-02-03T07:46:15;102499.63;;;8.38;99.11
47220;BME280;32961;51.936;4.788;2023-02-03T07:48:43;102510.34;;;8.40;99.27
47220;BME280;32961;51.936;4.788;2023-02-03T07:51:11;102501.47;;;8.38;99.20
47220;BME280;32961;51.936;4.788;2023-02-03T07:53:39;102500.31;;;8.42;99.39
47220;BME280;32961;51.936;4.788;2023-02-03T07:56:07;102520.13;;;8.42;98.98
47220;BME280;32961;51.936;4.788;2023-02-03T07:58:34;102504.94;;;8.40;99.04
47220;BME280;32961;51.936;4.788;2023-02-03T08:01:09;102514.72;;;8.42;99.31
47220;BME280;32961;51.936;4.788;2023-02-03T08:03:38;102511.94;;;8.44;99.32
47220;BME280;32961;51.936;4.788;2023-02-03T08:06:06;102517.53;;;8.41;99.58
47220;BME280;32961;51.936;4.788;2023-02-03T08:08:34;102528.19;;;8.44;99.49
47220;BME280;32961;51.936;4.788;2023-02-03T08:11:02;102533.53;;;8.45;99.38
47220;BME280;32961;51.936;4.788;2023-02-03T08:13:30;102528.72;;;8.50;99.28
47220;BME280;32961;51.936;4.788;2023-02-03T08:15:58;102524.00;;;8.54;98.97
47220;BME280;32961;51.936;4.788;2023-02-03T08:18:26;102530.22;;;8.56;98.95
47220;BME280;32961;51.936;4.788;2023-02-03T08:20:59;102515.78;;;8.56;98.99
47220;BME280;32961;51.936;4.788;2023-02-03T08:23:29;102523.91;;;8.56;99.10
47220;BME280;32961;51.936;4.788;2023-02-03T08:25:57;102537.28;;;8.59;98.85
47220;BME280;32961;51.936;4.788;2023-02-03T08:28:24;102551.09;;;8.54;98.96
47220;BME280;32961;51.936;4.788;2023-02-03T08:30:52;102552.75;;;8.57;99.24
47220;BME280;32961;51.936;4.788;2023-02-03T08:33:22;102542.50;;;8.62;98.98
47220;BME280;32961;51.936;4.788;2023-02-03T08:35:49;102536.94;;;8.65;98.72
47220;BME280;32961;51.936;4.788;2023-02-03T08:38:19;102532.72;;;8.59;98.77
47220;BME280;32961;51.936;4.788;2023-02-03T08:40:47;102550.94;;;8.57;98.99
47220;BME280;32961;51.936;4.788;2023-02-03T08:43:15;102552.66;;;8.58;99.17
47220;BME280;32961;51.936;4.788;2023-02-03T08:45:42;102551.63;;;8.61;98.90
47220;BME280;32961;51.936;4.788;2023-02-03T08:48:10;102546.13;;;8.62;98.91
47220;BME280;32961;51.936;4.788;2023-02-03T08:50:40;102542.50;;;8.62;98.77
47220;BME280;32961;51.936;4.788;2023-02-03T08:53:08;102548.63;;;8.65;98.70
47220;BME280;32961;51.936;4.788;2023-02-03T08:55:38;102549.75;;;8.77;98.16
47220;BME280;32961;51.936;4.788;2023-02-03T08:58:06;102550.91;;;8.73;97.86
47220;BME280;32961;51.936;4.788;2023-02-03T09:00:34;102558.16;;;8.73;97.85
47220;BME280;32961;51.936;4.788;2023-02-03T09:03:02;102575.47;;;8.70;97.46
47220;BME280;32961;51.936;4.788;2023-02-03T09:05:30;102577.13;;;8.73;97.33
47220;BME280;32961;51.936;4.788;2023-02-03T09:07:58;102564.25;;;8.76;97.55
47220;BME280;32961;51.936;4.788;2023-02-03T09:10:26;102556.81;;;8.80;97.21
47220;BME280;32961;51.936;4.788;2023-02-03T09:12:56;102575.44;;;8.86;96.94
47220;BME280;32961;51.936;4.788;2023-02-03T09:15:24;102589.69;;;8.90;97.17
47220;BME280;32961;51.936;4.788;2023-02-03T09:17:53;102582.59;;;8.87;96.79
47220;BME280;32961;51.936;4.788;2023-02-03T09:20:22;102594.59;;;8.83;96.63
47220;BME280;32961;51.936;4.788;2023-02-03T09:22:52;102600.78;;;8.85;96.69
47220;BME280;32961;51.936;4.788;2023-02-03T09:25:20;102595.09;;;8.90;96.75
47220;BME280;32961;51.936;4.788;2023-02-03T09:27:48;102592.59;;;8.87;96.20
47220;BME280;32961;51.936;4.788;2023-02-03T09:30:17;102605.94;;;8.90;96.44
47220;BME280;32961;51.936;4.788;2023-02-03T09:32:45;102596.59;;;8.95;96.36
47220;BME280;32961;51.936;4.788;2023-02-03T09:35:19;102607.34;;;8.97;96.34
47220;BME280;32961;51.936;4.788;2023-02-03T09:37:47;102615.97;;;9.04;95.78
47220;BME280;32961;51.936;4.788;2023-02-03T09:40:19;102612.59;;;9.00;95.95
47220;BME280;32961;51.936;4.788;2023-02-03T09:43:03;102602.59;;;9.01;96.01
47220;BME280;32961;51.936;4.788;2023-02-03T09:45:36;102603.31;;;9.04;96.16
47220;BME280;32961;51.936;4.788;2023-02-03T09:48:12;102616.97;;;9.03;96.19
47220;BME280;32961;51.936;4.788;2023-02-03T09:50:42;102599.38;;;9.10;96.31
47220;BME280;32961;51.936;4.788;2023-02-03T09:53:22;102607.56;;;9.08;95.63
47220;BME280;32961;51.936;4.788;2023-02-03T09:55:56;102599.94;;;9.15;95.97
47220;BME280;32961;51.936;4.788;2023-02-03T09:58:31;102609.47;;;9.22;95.58
47220;BME280;32961;51.936;4.788;2023-02-03T10:01:03;102619.06;;;9.28;94.97
47220;BME280;32961;51.936;4.788;2023-02-03T10:03:43;102622.56;;;9.30;95.13
47220;BME280;32961;51.936;4.788;2023-02-03T10:06:21;102612.28;;;9.35;95.06
47220;BME280;32961;51.936;4.788;2023-02-03T10:09:20;102627.34;;;9.41;94.94
47220;BME280;32961;51.936;4.788;2023-02-03T10:12:07;102630.66;;;9.46;94.46
47220;BME280;32961;51.936;4.788;2023-02-03T10:14:49;102620.66;;;9.46;94.20
47220;BME280;32961;51.936;4.788;2023-02-03T10:17:28;102634.84;;;9.52;94.25
47220;BME280;32961;51.936;4.788;2023-02-03T10:20:02;102644.41;;;9.57;94.45
47220;BME280;32961;51.936;4.788;2023-02-03T10:22:34;102636.38;;;9.56;93.46
47220;BME280;32961;51.936;4.788;2023-02-03T10:25:07;102642.78;;;9.55;93.79
47220;BME280;32961;51.936;4.788;2023-02-03T10:27:42;102644.34;;;9.59;93.63
47220;BME280;32961;51.936;4.788;2023-02-03T10:30:18;102641.44;;;9.62;93.54
47220;BME280;32961;51.936;4.788;2023-02-03T10:32:50;102642.66;;;9.56;93.67
47220;BME280;32961;51.936;4.788;2023-02-03T10:35:21;102654.81;;;9.65;93.43
47220;BME280;32961;51.936;4.788;2023-02-03T10:37:56;102651.75;;;9.71;93.46
47220;BME280;32961;51.936;4.788;2023-02-03T10:40:28;102647.06;;;9.73;92.87
47220;BME280;32961;51.936;4.788;2023-02-03T10:42:56;102658.72;;;9.75;92.48
47220;BME280;32961;51.936;4.788;2023-02-03T10:45:41;102655.63;;;9.82;92.37
47220;BME280;32961;51.936;4.788;2023-02-03T10:48:15;102658.34;;;9.82;92.25
47220;BME280;32961;51.936;4.788;2023-02-03T10:50:47;102675.31;;;9.85;92.82
47220;BME280;32961;51.936;4.788;2023-02-03T10:53:22;102662.31;;;9.90;91.66
47220;BME280;32961;51.936;4.788;2023-02-03T10:56:00;102672.31;;;9.90;91.87
47220;BME280;32961;51.936;4.788;2023-02-03T10:58:29;102670.34;;;9.92;91.54
47220;BME280;32961;51.936;4.788;2023-02-03T11:01:05;102673.56;;;9.84;92.10
47220;BME280;32961;51.936;4.788;2023-02-03T11:03:37;102677.53;;;9.93;91.81
47220;BME280;32961;51.936;4.788;2023-02-03T11:06:10;102665.59;;;9.95;91.43
47220;BME280;32961;51.936;4.788;2023-02-03T11:08:40;102681.91;;;9.95;91.44
47220;BME280;32961;51.936;4.788;2023-02-03T11:11:12;102672.91;;;9.95;90.95
47220;BME280;32961;51.936;4.788;2023-02-03T11:13:40;102672.03;;;9.94;91.73
47220;BME280;32961;51.936;4.788;2023-02-03T11:16:13;102689.75;;;10.00;91.55
47220;BME280;32961;51.936;4.788;2023-02-03T11:18:54;102682.19;;;10.05;91.12
47220;BME280;32961;51.936;4.788;2023-02-03T11:21:24;102675.44;;;9.98;91.22
47220;BME280;32961;51.936;4.788;2023-02-03T11:23:56;102675.22;;;10.01;91.53
47220;BME280;32961;51.936;4.788;2023-02-03T11:26:26;102677.16;;;9.99;91.41
47220;BME280;32961;51.936;4.788;2023-02-03T11:28:57;102672.22;;;9.91;91.42
47220;BME280;32961;51.936;4.788;2023-02-03T11:31:27;102685.88;;;9.90;91.48
47220;BME280;32961;51.936;4.788;2023-02-03T11:34:00;102685.59;;;9.94;91.47
47220;BME280;32961;51.936;4.788;2023-02-03T11:36:30;102677.63;;;9.91;91.63
47220;BME280;32961;51.936;4.788;2023-02-03T11:39:18;102682.66;;;9.83;91.86
47220;BME280;32961;51.936;4.788;2023-02-03T11:41:47;102675.78;;;9.92;91.61
47220;BME280;32961;51.936;4.788;2023-02-03T11:44:20;102677.06;;;9.86;91.75
47220;BME280;32961;51.936;4.788;2023-02-03T11:46:52;102675.78;;;9.92;92.07
47220;BME280;32961;51.936;4.788;2023-02-03T11:49:59;102672.31;;;9.90;91.21
47220;BME280;32961;51.936;4.788;2023-02-03T11:52:57;102671.03;;;9.81;92.45
47220;BME280;32961;51.936;4.788;2023-02-03T11:55:40;102667.44;;;9.80;92.60
47220;BME280;32961;51.936;4.788;2023-02-03T12:01:24;102683.56;;;9.84;92.30
47220;BME280;32961;51.936;4.788;2023-02-03T12:04:19;102668.81;;;9.88;92.85
47220;BME280;32961;51.936;4.788;2023-02-03T12:09:49;102676.16;;;9.86;92.77
47220;BME280;32961;51.936;4.788;2023-02-03T12:12:33;102671.03;;;9.95;92.28
47220;BME280;32961;51.936;4.788;2023-02-03T12:15:23;102671.63;;;9.86;92.01
47220;BME280;32961;51.936;4.788;2023-02-03T12:18:09;102661.25;;;9.93;91.93
47220;BME280;32961;51.936;4.788;2023-02-03T12:20:46;102666.59;;;9.94;91.61
47220;BME280;32961;51.936;4.788;2023-02-03T12:23:29;102663.19;;;9.91;92.78
47220;BME280;32961;51.936;4.788;2023-02-03T12:26:09;102666.69;;;9.93;91.77
47220;BME280;32961;51.936;4.788;2023-02-03T12:28:51;102671.81;;;9.98;92.45
47220;BME280;32961;51.936;4.788;2023-02-03T12:31:26;102672.72;;;9.98;91.84
47220;BME280;32961;51.936;4.788;2023-02-03T12:34:03;102667.06;;;10.01;91.95
47220;BME280;32961;51.936;4.788;2023-02-03T12:36:38;102667.66;;;10.06;92.04
47220;BME280;32961;51.936;4.788;2023-02-03T12:39:11;102670.88;;;10.13;91.72
47220;BME280;32961;51.936;4.788;2023-02-03T12:41:47;102678.91;;;10.15;91.65
47220;BME280;32961;51.936;4.788;2023-02-03T12:44:19;102673.78;;;10.10;91.28
47220;BME280;32961;51.936;4.788;2023-02-03T12:46:52;102675.63;;;10.09;91.72
47220;BME280;32961;51.936;4.788;2023-02-03T12:49:30;102674.66;;;10.10;91.32
47220;BME280;32961;51.936;4.788;2023-02-03T12:52:06;102678.34;;;10.09;91.97
47220;BME280;32961;51.936;4.788;2023-02-03T12:54:43;102673.59;;;10.13;91.80
47220;BME280;32961;51.936;4.788;2023-02-03T12:57:19;102684.06;;;10.19;91.57
47220;BME280;32961;51.936;4.788;2023-02-03T12:59:58;102689.00;;;10.12;91.13
47220;BME280;32961;51.936;4.788;2023-02-03T13:02:33;102692.22;;;10.19;91.03
47220;BME280;32961;51.936;4.788;2023-02-03T13:05:08;102689.41;;;10.21;91.81
47220;BME280;32961;51.936;4.788;2023-02-03T13:07:46;102689.22;;;10.09;91.31
47220;BME280;32961;51.936;4.788;2023-02-03T13:10:21;102695.78;;;10.05;91.76
47220;BME280;32961;51.936;4.788;2023-02-03T13:12:55;102698.22;;;10.10;91.47
47220;BME280;32961;51.936;4.788;2023-02-03T13:15:26;102706.06;;;10.00;91.74
47220;BME280;32961;51.936;4.788;2023-02-03T13:17:57;102707.81;;;10.01;92.46
47220;BME280;32961;51.936;4.788;2023-02-03T13:20:29;102704.25;;;10.01;92.54
47220;BME280;32961;51.936;4.788;2023-02-03T13:23:00;102712.00;;;10.07;92.70
47220;BME280;32961;51.936;4.788;2023-02-03T13:25:45;102728.19;;;10.08;92.55
47220;BME280;32961;51.936;4.788;2023-02-03T13:28:26;102723.03;;;10.04;93.65
47220;BME280;32961;51.936;4.788;2023-02-03T13:31:09;102729.63;;;10.00;94.89